sensor_id;sensor_type;location;lat;lon;timestamp;P1;durP1;ratioP1;P2;durP2;ratioP2
11539;SDS011;5826;54.756;9.192;2022-09-09T00:01:47;6.80;;;4.95;;
11539;SDS011;5826;54.756;9.192;2022-09-09T00:04:27;9.25;;;5.95;;
11539;SDS011;5826;54.756;9.192;2022-09-09T00:12:36;7.53;;;5.97;;
11539;SDS011;5826;54.756;9.192;2022-09-09T00:15:26;8.98;;;6.35;;
11539;SDS011;5826;54.756;9.192;2022-09-09T00:21:17;10.27;;;6.55;;
11539;SDS011;5826;54.756;9.192;2022-09-09T00:23:47;9.85;;;6.47;;
11539;SDS011;5826;54.756;9.192;2022-09-09T00:26:22;9.55;;;6.95;;
11539;SDS011;5826;54.756;9.192;2022-09-09T00:31:32;9.13;;;7.22;;
11539;SDS011;5826;54.756;9.192;2022-09-09T00:33:58;8.38;;;6.55;;
11539;SDS011;5826;54.756;9.192;2022-09-09T00:36:36;9.52;;;6.88;;
11539;SDS011;5826;54.756;9.192;2022-09-09T00:39:03;10.32;;;6.60;;
11539;SDS011;5826;54.756;9.192;2022-09-09T00:41:46;10.90;;;7.20;;
11539;SDS011;5826;54.756;9.192;2022-09-09T00:44:28;9.73;;;6.78;;
11539;SDS011;5826;54.756;9.192;2022-09-09T00:50:11;9.90;;;7.05;;
11539;SDS011;5826;54.756;9.192;2022-09-09T00:58:36;8.93;;;6.45;;
11539;SDS011;5826;54.756;9.192;2022-09-09T01:03:34;8.70;;;6.03;;
11539;SDS011;5826;54.756;9.192;2022-09-09T01:06:01;8.57;;;6.40;;
11539;SDS011;5826;54.756;9.192;2022-09-09T01:11:01;8.55;;;6.53;;
11539;SDS011;5826;54.756;9.192;2022-09-09T01:13:34;7.70;;;6.05;;
11539;SDS011;5826;54.756;9.192;2022-09-09T01:16:02;7.75;;;6.03;;
11539;SDS011;5826;54.756;9.192;2022-09-09T01:18:34;8.68;;;6.90;;
11539;SDS011;5826;54.756;9.192;2022-09-09T01:21:17;8.50;;;6.75;;
11539;SDS011;5826;54.756;9.192;2022-09-09T01:26:45;10.27;;;7.57;;
11539;SDS011;5826;54.756;9.192;2022-09-09T01:29:13;7.43;;;6.20;;
11539;SDS011;5826;54.756;9.192;2022-09-09T01:34:25;8.13;;;6.60;;
11539;SDS011;5826;54.756;9.192;2022-09-09T01:39:30;8.07;;;6.43;;
11539;SDS011;5826;54.756;9.192;2022-09-09T01:41:57;7.90;;;6.40;;
11539;SDS011;5826;54.756;9.192;2022-09-09T01:44:24;7.68;;;6.40;;
11539;SDS011;5826;54.756;9.192;2022-09-09T01:46:50;8.30;;;6.50;;
11539;SDS011;5826;54.756;9.192;2022-09-09T01:49:16;7.32;;;5.85;;
11539;SDS011;5826;54.756;9.192;2022-09-09T01:51:42;7.55;;;6.35;;
11539;SDS011;5826;54.756;9.192;2022-09-09T01:54:10;7.22;;;5.82;;
11539;SDS011;5826;54.756;9.192;2022-09-09T02:09:51;9.98;;;7.45;;
11539;SDS011;5826;54.756;9.192;2022-09-09T02:12:26;9.85;;;7.40;;
11539;SDS011;5826;54.756;9.192;2022-09-09T02:15:00;10.00;;;7.22;;
11539;SDS011;5826;54.756;9.192;2022-09-09T02:17:31;9.27;;;6.97;;
11539;SDS011;5826;54.756;9.192;2022-09-09T02:20:05;11.07;;;8.35;;
11539;SDS011;5826;54.756;9.192;2022-09-09T02:22:33;9.55;;;7.40;;
11539;SDS011;5826;54.756;9.192;2022-09-09T02:25:04;9.35;;;6.57;;
11539;SDS011;5826;54.756;9.192;2022-09-09T02:27:32;9.68;;;7.13;;
11539;SDS011;5826;54.756;9.192;2022-09-09T02:29:58;12.43;;;8.57;;
11539;SDS011;5826;54.756;9.192;2022-09-09T02:32:27;13.05;;;8.70;;
11539;SDS011;5826;54.756;9.192;2022-09-09T02:34:58;11.80;;;9.15;;
11539;SDS011;5826;54.756;9.192;2022-09-09T02:37:37;11.43;;;8.60;;
11539;SDS011;5826;54.756;9.192;2022-09-09T02:40:08;11.80;;;8.85;;
11539;SDS011;5826;54.756;9.192;2022-09-09T02:42:39;12.25;;;9.13;;
11539;SDS011;5826;54.756;9.192;2022-09-09T02:45:10;13.25;;;9.65;;
11539;SDS011;5826;54.756;9.192;2022-09-09T02:50:13;12.30;;;9.00;;
11539;SDS011;5826;54.756;9.192;2022-09-09T02:52:45;13.55;;;9.02;;
11539;SDS011;5826;54.756;9.192;2022-09-09T02:58:08;13.63;;;9.98;;
11539;SDS011;5826;54.756;9.192;2022-09-09T03:00:36;13.35;;;9.55;;
11539;SDS011;5826;54.756;9.192;2022-09-09T03:03:04;12.00;;;9.13;;
11539;SDS011;5826;54.756;9.192;2022-09-09T03:05:31;15.05;;;9.82;;
11539;SDS011;5826;54.756;9.192;2022-09-09T03:07:57;13.45;;;8.80;;
11539;SDS011;5826;54.756;9.192;2022-09-09T03:10:23;12.45;;;9.07;;
11539;SDS011;5826;54.756;9.192;2022-09-09T03:12:48;11.10;;;8.95;;
11539;SDS011;5826;54.756;9.192;2022-09-09T03:15:15;12.13;;;9.18;;
11539;SDS011;5826;54.756;9.192;2022-09-09T03:17:41;13.27;;;9.57;;
11539;SDS011;5826;54.756;9.192;2022-09-09T03:20:07;12.10;;;9.02;;
11539;SDS011;5826;54.756;9.192;2022-09-09T03:22:33;12.45;;;9.82;;
11539;SDS011;5826;54.756;9.192;2022-09-09T03:24:59;11.77;;;8.80;;
11539;SDS011;5826;54.756;9.192;2022-09-09T03:27:24;13.27;;;9.75;;
11539;SDS011;5826;54.756;9.192;2022-09-09T03:29:50;12.05;;;9.68;;
11539;SDS011;5826;54.756;9.192;2022-09-09T03:32:17;11.45;;;9.18;;
11539;SDS011;5826;54.756;9.192;2022-09-09T03:34:43;10.60;;;8.68;;
11539;SDS011;5826;54.756;9.192;2022-09-09T03:37:09;10.32;;;8.00;;
11539;SDS011;5826;54.756;9.192;2022-09-09T03:39:34;11.20;;;8.45;;
11539;SDS011;5826;54.756;9.192;2022-09-09T03:42:00;9.80;;;8.18;;
11539;SDS011;5826;54.756;9.192;2022-09-09T03:44:28;9.88;;;8.07;;
11539;SDS011;5826;54.756;9.192;2022-09-09T03:46:54;9.77;;;8.27;;
11539;SDS011;5826;54.756;9.192;2022-09-09T03:49:20;9.82;;;8.23;;
11539;SDS011;5826;54.756;9.192;2022-09-09T03:51:46;9.80;;;8.30;;
11539;SDS011;5826;54.756;9.192;2022-09-09T03:54:12;9.90;;;7.80;;
11539;SDS011;5826;54.756;9.192;2022-09-09T03:56:37;8.90;;;7.57;;
11539;SDS011;5826;54.756;9.192;2022-09-09T03:59:03;8.93;;;7.53;;
11539;SDS011;5826;54.756;9.192;2022-09-09T04:01:29;9.65;;;7.72;;
11539;SDS011;5826;54.756;9.192;2022-09-09T04:03:55;8.88;;;7.65;;
11539;SDS011;5826;54.756;9.192;2022-09-09T04:06:23;9.07;;;7.82;;
11539;SDS011;5826;54.756;9.192;2022-09-09T04:08:49;9.63;;;8.20;;
11539;SDS011;5826;54.756;9.192;2022-09-09T04:11:15;9.27;;;8.27;;
11539;SDS011;5826;54.756;9.192;2022-09-09T04:13:41;8.82;;;7.47;;
11539;SDS011;5826;54.756;9.192;2022-09-09T04:16:07;8.30;;;7.40;;
11539;SDS011;5826;54.756;9.192;2022-09-09T04:18:34;9.30;;;7.80;;
11539;SDS011;5826;54.756;9.192;2022-09-09T04:21:00;9.63;;;8.13;;
11539;SDS011;5826;54.756;9.192;2022-09-09T04:23:26;8.75;;;7.68;;
11539;SDS011;5826;54.756;9.192;2022-09-09T04:25:56;7.95;;;7.15;;
11539;SDS011;5826;54.756;9.192;2022-09-09T04:28:24;10.10;;;8.13;;
11539;SDS011;5826;54.756;9.192;2022-09-09T04:30:51;10.40;;;7.47;;
11539;SDS011;5826;54.756;9.192;2022-09-09T04:33:17;8.32;;;7.13;;
11539;SDS011;5826;54.756;9.192;2022-09-09T04:35:47;9.18;;;7.97;;
11539;SDS011;5826;54.756;9.192;2022-09-09T04:38:14;8.68;;;7.10;;
11539;SDS011;5826;54.756;9.192;2022-09-09T04:40:42;8.50;;;7.53;;
11539;SDS011;5826;54.756;9.192;2022-09-09T04:43:08;10.18;;;7.95;;
11539;SDS011;5826;54.756;9.192;2022-09-09T04:45:34;11.05;;;8.35;;
11539;SDS011;5826;54.756;9.192;2022-09-09T04:48:00;11.18;;;9.43;;
11539;SDS011;5826;54.756;9.192;2022-09-09T04:50:27;10.40;;;8.30;;
11539;SDS011;5826;54.756;9.192;2022-09-09T04:52:53;9.05;;;7.78;;
11539;SDS011;5826;54.756;9.192;2022-09-09T04:55:18;17.52;;;13.02;;
11539;SDS011;5826;54.756;9.192;2022-09-09T04:57:45;9.48;;;7.95;;
11539;SDS011;5826;54.756;9.192;2022-09-09T05:00:11;9.45;;;8.20;;
11539;SDS011;5826;54.756;9.192;2022-09-09T05:02:37;8.05;;;7.25;;
11539;SDS011;5826;54.756;9.192;2022-09-09T05:05:03;9.80;;;8.30;;
11539;SDS011;5826;54.756;9.192;2022-09-09T05:07:30;8.70;;;7.40;;
11539;SDS011;5826;54.756;9.192;2022-09-09T05:09:56;8.45;;;7.55;;
11539;SDS011;5826;54.756;9.192;2022-09-09T05:12:22;7.60;;;6.80;;
11539;SDS011;5826;54.756;9.192;2022-09-09T05:14:48;9.63;;;7.65;;
11539;SDS011;5826;54.756;9.192;2022-09-09T05:17:15;9.38;;;7.93;;
11539;SDS011;5826;54.756;9.192;2022-09-09T05:19:41;8.80;;;7.72;;
11539;SDS011;5826;54.756;9.192;2022-09-09T05:22:06;8.88;;;7.88;;
11539;SDS011;5826;54.756;9.192;2022-09-09T05:24:32;10.13;;;8.13;;
11539;SDS011;5826;54.756;9.192;2022-09-09T05:26:58;9.80;;;8.27;;
11539;SDS011;5826;54.756;9.192;2022-09-09T05:29:26;8.77;;;7.38;;
11539;SDS011;5826;54.756;9.192;2022-09-09T05:31:52;10.25;;;9.15;;
11539;SDS011;5826;54.756;9.192;2022-09-09T05:34:17;9.65;;;8.63;;
11539;SDS011;5826;54.756;9.192;2022-09-09T05:36:43;9.25;;;7.97;;
11539;SDS011;5826;54.756;9.192;2022-09-09T05:39:08;8.65;;;7.43;;
11539;SDS011;5826;54.756;9.192;2022-09-09T05:41:34;12.68;;;9.45;;
11539;SDS011;5826;54.756;9.192;2022-09-09T05:44:00;8.43;;;7.50;;
11539;SDS011;5826;54.756;9.192;2022-09-09T05:46:26;9.75;;;8.75;;
11539;SDS011;5826;54.756;9.192;2022-09-09T05:48:52;7.90;;;7.10;;
11539;SDS011;5826;54.756;9.192;2022-09-09T05:51:20;8.02;;;7.15;;
11539;SDS011;5826;54.756;9.192;2022-09-09T05:53:47;12.68;;;9.68;;
11539;SDS011;5826;54.756;9.192;2022-09-09T05:56:23;8.13;;;6.95;;
11539;SDS011;5826;54.756;9.192;2022-09-09T05:58:50;8.32;;;7.53;;
11539;SDS011;5826;54.756;9.192;2022-09-09T06:01:19;9.02;;;8.13;;
11539;SDS011;5826;54.756;9.192;2022-09-09T06:03:47;8.50;;;7.70;;
11539;SDS011;5826;54.756;9.192;2022-09-09T06:06:15;8.07;;;7.28;;
11539;SDS011;5826;54.756;9.192;2022-09-09T06:08:43;6.63;;;6.03;;
11539;SDS011;5826;54.756;9.192;2022-09-09T06:11:11;8.63;;;7.68;;
11539;SDS011;5826;54.756;9.192;2022-09-09T06:13:47;8.27;;;7.47;;
11539;SDS011;5826;54.756;9.192;2022-09-09T06:16:17;9.07;;;8.18;;
11539;SDS011;5826;54.756;9.192;2022-09-09T06:18:44;7.22;;;6.53;;
11539;SDS011;5826;54.756;9.192;2022-09-09T06:21:17;8.18;;;7.25;;
11539;SDS011;5826;54.756;9.192;2022-09-09T06:23:44;7.70;;;6.90;;
11539;SDS011;5826;54.756;9.192;2022-09-09T06:26:17;7.20;;;6.50;;
11539;SDS011;5826;54.756;9.192;2022-09-09T06:28:44;7.22;;;5.97;;
11539;SDS011;5826;54.756;9.192;2022-09-09T06:31:12;7.55;;;6.70;;
11539;SDS011;5826;54.756;9.192;2022-09-09T06:33:42;7.35;;;6.60;;
11539;SDS011;5826;54.756;9.192;2022-09-09T06:36:15;7.60;;;6.65;;
11539;SDS011;5826;54.756;9.192;2022-09-09T06:38:42;7.13;;;6.43;;
11539;SDS011;5826;54.756;9.192;2022-09-09T06:41:08;8.25;;;7.45;;
11539;SDS011;5826;54.756;9.192;2022-09-09T06:43:34;8.82;;;7.18;;
11539;SDS011;5826;54.756;9.192;2022-09-09T06:46:01;7.15;;;6.45;;
11539;SDS011;5826;54.756;9.192;2022-09-09T06:48:33;7.40;;;6.70;;
11539;SDS011;5826;54.756;9.192;2022-09-09T06:53:35;7.97;;;6.72;;
11539;SDS011;5826;54.756;9.192;2022-09-09T06:58:39;6.88;;;6.18;;
11539;SDS011;5826;54.756;9.192;2022-09-09T07:01:08;6.40;;;5.80;;
11539;SDS011;5826;54.756;9.192;2022-09-09T07:03:34;6.50;;;5.90;;
11539;SDS011;5826;54.756;9.192;2022-09-09T07:06:00;6.47;;;5.85;;
11539;SDS011;5826;54.756;9.192;2022-09-09T07:08:26;6.80;;;6.10;;
11539;SDS011;5826;54.756;9.192;2022-09-09T07:10:51;7.57;;;6.88;;
11539;SDS011;5826;54.756;9.192;2022-09-09T07:13:24;15.68;;;14.02;;
11539;SDS011;5826;54.756;9.192;2022-09-09T07:15:51;9.25;;;8.10;;
11539;SDS011;5826;54.756;9.192;2022-09-09T07:18:17;9.63;;;7.93;;
11539;SDS011;5826;54.756;9.192;2022-09-09T07:20:51;7.82;;;7.03;;
11539;SDS011;5826;54.756;9.192;2022-09-09T07:23:18;11.13;;;9.95;;
11539;SDS011;5826;54.756;9.192;2022-09-09T07:25:46;9.05;;;8.15;;
11539;SDS011;5826;54.756;9.192;2022-09-09T07:28:12;13.52;;;11.77;;
11539;SDS011;5826;54.756;9.192;2022-09-09T07:30:38;8.73;;;7.80;;
11539;SDS011;5826;54.756;9.192;2022-09-09T07:33:05;11.15;;;10.00;;
11539;SDS011;5826;54.756;9.192;2022-09-09T07:35:30;9.50;;;8.52;;
11539;SDS011;5826;54.756;9.192;2022-09-09T07:37:56;10.57;;;8.35;;
11539;SDS011;5826;54.756;9.192;2022-09-09T07:40:23;7.82;;;6.85;;
11539;SDS011;5826;54.756;9.192;2022-09-09T07:42:49;8.45;;;7.55;;
11539;SDS011;5826;54.756;9.192;2022-09-09T07:45:14;8.65;;;7.40;;
11539;SDS011;5826;54.756;9.192;2022-09-09T07:47:40;9.40;;;8.25;;
11539;SDS011;5826;54.756;9.192;2022-09-09T07:50:09;9.73;;;8.48;;
11539;SDS011;5826;54.756;9.192;2022-09-09T07:52:35;9.80;;;8.80;;
11539;SDS011;5826;54.756;9.192;2022-09-09T07:55:01;17.30;;;14.43;;
11539;SDS011;5826;54.756;9.192;2022-09-09T07:57:28;11.13;;;8.95;;
11539;SDS011;5826;54.756;9.192;2022-09-09T07:59:55;8.90;;;8.00;;
11539;SDS011;5826;54.756;9.192;2022-09-09T08:02:21;9.18;;;8.25;;
11539;SDS011;5826;54.756;9.192;2022-09-09T08:04:52;8.90;;;7.82;;
11539;SDS011;5826;54.756;9.192;2022-09-09T08:07:18;9.50;;;8.07;;
11539;SDS011;5826;54.756;9.192;2022-09-09T08:09:44;8.63;;;7.72;;
11539;SDS011;5826;54.756;9.192;2022-09-09T08:12:09;8.88;;;8.02;;
11539;SDS011;5826;54.756;9.192;2022-09-09T08:14:38;9.88;;;8.55;;
11539;SDS011;5826;54.756;9.192;2022-09-09T08:17:04;10.63;;;9.52;;
11539;SDS011;5826;54.756;9.192;2022-09-09T08:19:30;11.60;;;10.40;;
11539;SDS011;5826;54.756;9.192;2022-09-09T08:21:58;10.02;;;9.02;;
11539;SDS011;5826;54.756;9.192;2022-09-09T08:24:24;9.18;;;8.27;;
11539;SDS011;5826;54.756;9.192;2022-09-09T08:26:50;10.30;;;9.27;;
11539;SDS011;5826;54.756;9.192;2022-09-09T08:29:15;9.45;;;8.45;;
11539;SDS011;5826;54.756;9.192;2022-09-09T08:31:45;7.20;;;6.50;;
11539;SDS011;5826;54.756;9.192;2022-09-09T08:34:13;9.45;;;8.48;;
11539;SDS011;5826;54.756;9.192;2022-09-09T08:36:39;10.55;;;8.60;;
11539;SDS011;5826;54.756;9.192;2022-09-09T08:39:07;17.65;;;14.18;;
11539;SDS011;5826;54.756;9.192;2022-09-09T08:44:10;11.52;;;10.30;;
11539;SDS011;5826;54.756;9.192;2022-09-09T08:55:45;9.00;;;8.10;;
11539;SDS011;5826;54.756;9.192;2022-09-09T09:03:28;8.98;;;8.07;;
11539;SDS011;5826;54.756;9.192;2022-09-09T09:06:13;8.82;;;7.80;;
11539;SDS011;5826;54.756;9.192;2022-09-09T09:11:49;10.32;;;9.20;;
11539;SDS011;5826;54.756;9.192;2022-09-09T09:14:21;7.47;;;6.68;;
11539;SDS011;5826;54.756;9.192;2022-09-09T09:16:53;8.65;;;7.75;;
11539;SDS011;5826;54.756;9.192;2022-09-09T09:19:23;8.88;;;7.63;;
11539;SDS011;5826;54.756;9.192;2022-09-09T09:24:18;8.77;;;7.60;;
11539;SDS011;5826;54.756;9.192;2022-09-09T09:26:44;9.82;;;8.85;;
11539;SDS011;5826;54.756;9.192;2022-09-09T09:29:11;8.65;;;7.75;;
11539;SDS011;5826;54.756;9.192;2022-09-09T09:31:41;8.45;;;7.57;;
11539;SDS011;5826;54.756;9.192;2022-09-09T09:34:19;16.88;;;13.60;;
11539;SDS011;5826;54.756;9.192;2022-09-09T09:36:46;9.15;;;8.00;;
11539;SDS011;5826;54.756;9.192;2022-09-09T09:41:53;10.27;;;9.20;;
11539;SDS011;5826;54.756;9.192;2022-09-09T09:44:28;9.65;;;8.63;;
11539;SDS011;5826;54.756;9.192;2022-09-09T09:49:52;10.05;;;9.05;;
11539;SDS011;5826;54.756;9.192;2022-09-09T09:52:25;14.13;;;12.20;;
11539;SDS011;5826;54.756;9.192;2022-09-09T09:54:53;11.13;;;10.02;;
11539;SDS011;5826;54.756;9.192;2022-09-09T09:57:23;12.38;;;11.07;;
11539;SDS011;5826;54.756;9.192;2022-09-09T10:00:00;12.50;;;10.63;;
11539;SDS011;5826;54.756;9.192;2022-09-09T10:02:40;10.52;;;9.43;;
11539;SDS011;5826;54.756;9.192;2022-09-09T10:05:15;9.63;;;8.63;;
11539;SDS011;5826;54.756;9.192;2022-09-09T10:10:49;14.88;;;13.25;;
11539;SDS011;5826;54.756;9.192;2022-09-09T10:13:24;10.38;;;9.38;;
11539;SDS011;5826;54.756;9.192;2022-09-09T10:18:48;8.85;;;8.05;;
11539;SDS011;5826;54.756;9.192;2022-09-09T10:26:50;8.40;;;7.63;;
11539;SDS011;5826;54.756;9.192;2022-09-09T10:32:38;6.60;;;6.10;;
11539;SDS011;5826;54.756;9.192;2022-09-09T10:40:48;7.68;;;6.97;;
11539;SDS011;5826;54.756;9.192;2022-09-09T10:46:45;5.78;;;5.28;;
11539;SDS011;5826;54.756;9.192;2022-09-09T10:52:09;6.68;;;6.18;;
11539;SDS011;5826;54.756;9.192;2022-09-09T11:00:13;7.40;;;6.75;;
11539;SDS011;5826;54.756;9.192;2022-09-09T11:02:54;6.20;;;5.70;;
11539;SDS011;5826;54.756;9.192;2022-09-09T11:08:16;6.38;;;5.88;;
11539;SDS011;5826;54.756;9.192;2022-09-09T11:10:56;6.85;;;6.25;;
11539;SDS011;5826;54.756;9.192;2022-09-09T11:13:30;6.88;;;6.28;;
11539;SDS011;5826;54.756;9.192;2022-09-09T11:18:36;8.05;;;7.32;;
11539;SDS011;5826;54.756;9.192;2022-09-09T11:21:07;12.50;;;11.40;;
11539;SDS011;5826;54.756;9.192;2022-09-09T11:23:41;8.85;;;8.10;;
11539;SDS011;5826;54.756;9.192;2022-09-09T11:26:18;10.70;;;9.80;;
11539;SDS011;5826;54.756;9.192;2022-09-09T11:37:15;14.82;;;13.57;;
11539;SDS011;5826;54.756;9.192;2022-09-09T11:42:48;13.05;;;11.88;;
11539;SDS011;5826;54.756;9.192;2022-09-09T11:45:26;12.00;;;10.93;;
11539;SDS011;5826;54.756;9.192;2022-09-09T11:47:58;19.25;;;17.33;;
11539;SDS011;5826;54.756;9.192;2022-09-09T11:52:51;12.48;;;11.38;;
11539;SDS011;5826;54.756;9.192;2022-09-09T11:58:04;10.50;;;9.60;;
11539;SDS011;5826;54.756;9.192;2022-09-09T12:00:40;11.80;;;10.60;;
11539;SDS011;5826;54.756;9.192;2022-09-09T12:08:46;10.32;;;9.43;;
11539;SDS011;5826;54.756;9.192;2022-09-09T12:11:28;11.40;;;10.48;;
11539;SDS011;5826;54.756;9.192;2022-09-09T12:13:56;12.25;;;11.18;;
11539;SDS011;5826;54.756;9.192;2022-09-09T12:16:30;9.45;;;8.65;;
11539;SDS011;5826;54.756;9.192;2022-09-09T12:19:12;8.20;;;7.53;;
11539;SDS011;5826;54.756;9.192;2022-09-09T12:24:09;8.30;;;7.60;;
11539;SDS011;5826;54.756;9.192;2022-09-09T12:27:30;9.43;;;8.65;;
11539;SDS011;5826;54.756;9.192;2022-09-09T12:30:01;12.10;;;11.00;;
11539;SDS011;5826;54.756;9.192;2022-09-09T12:32:35;10.32;;;9.43;;
11539;SDS011;5826;54.756;9.192;2022-09-09T12:35:03;8.43;;;7.72;;
11539;SDS011;5826;54.756;9.192;2022-09-09T12:37:35;9.07;;;8.38;;
11539;SDS011;5826;54.756;9.192;2022-09-09T12:40:22;9.57;;;8.75;;
11539;SDS011;5826;54.756;9.192;2022-09-09T12:42:57;8.50;;;7.78;;
11539;SDS011;5826;54.756;9.192;2022-09-09T12:45:25;8.82;;;8.13;;
11539;SDS011;5826;54.756;9.192;2022-09-09T12:48:00;7.40;;;6.80;;
11539;SDS011;5826;54.756;9.192;2022-09-09T12:50:30;7.20;;;6.60;;
11539;SDS011;5826;54.756;9.192;2022-09-09T12:53:02;7.55;;;6.95;;
11539;SDS011;5826;54.756;9.192;2022-09-09T12:55:35;6.68;;;6.18;;
11539;SDS011;5826;54.756;9.192;2022-09-09T12:58:03;6.63;;;6.05;;
11539;SDS011;5826;54.756;9.192;2022-09-09T13:00:31;6.43;;;5.82;;
11539;SDS011;5826;54.756;9.192;2022-09-09T13:03:02;8.02;;;7.32;;
11539;SDS011;5826;54.756;9.192;2022-09-09T13:05:39;8.48;;;7.68;;
11539;SDS011;5826;54.756;9.192;2022-09-09T13:08:05;6.20;;;5.63;;
11539;SDS011;5826;54.756;9.192;2022-09-09T13:10:35;4.10;;;3.70;;
11539;SDS011;5826;54.756;9.192;2022-09-09T13:13:23;3.78;;;3.47;;
11539;SDS011;5826;54.756;9.192;2022-09-09T13:15:52;4.07;;;3.78;;
11539;SDS011;5826;54.756;9.192;2022-09-09T13:18:24;2.90;;;2.70;;
11539;SDS011;5826;54.756;9.192;2022-09-09T13:20:53;2.70;;;2.50;;
11539;SDS011;5826;54.756;9.192;2022-09-09T13:23:21;2.42;;;1.98;;
11539;SDS011;5826;54.756;9.192;2022-09-09T13:25:54;2.38;;;2.17;;
11539;SDS011;5826;54.756;9.192;2022-09-09T13:28:21;2.35;;;1.90;;
11539;SDS011;5826;54.756;9.192;2022-09-09T13:31:02;1.90;;;1.50;;
11539;SDS011;5826;54.756;9.192;2022-09-09T13:33:35;1.77;;;1.30;;
11539;SDS011;5826;54.756;9.192;2022-09-09T13:36:03;2.65;;;1.40;;
11539;SDS011;5826;54.756;9.192;2022-09-09T13:41:18;2.85;;;1.30;;
11539;SDS011;5826;54.756;9.192;2022-09-09T13:43:46;2.05;;;1.48;;
11539;SDS011;5826;54.756;9.192;2022-09-09T13:48:59;1.63;;;0.90;;
11539;SDS011;5826;54.756;9.192;2022-09-09T13:51:35;1.73;;;0.90;;
11539;SDS011;5826;54.756;9.192;2022-09-09T13:54:10;1.10;;;0.98;;
11539;SDS011;5826;54.756;9.192;2022-09-09T13:56:38;1.92;;;1.00;;
11539;SDS011;5826;54.756;9.192;2022-09-09T13:59:04;1.13;;;0.73;;
11539;SDS011;5826;54.756;9.192;2022-09-09T14:01:32;0.80;;;0.80;;
11539;SDS011;5826;54.756;9.192;2022-09-09T14:03:59;1.08;;;0.98;;
11539;SDS011;5826;54.756;9.192;2022-09-09T14:06:25;0.95;;;0.80;;
11539;SDS011;5826;54.756;9.192;2022-09-09T14:08:52;1.45;;;0.80;;
11539;SDS011;5826;54.756;9.192;2022-09-09T14:11:19;1.20;;;0.90;;
11539;SDS011;5826;54.756;9.192;2022-09-09T14:13:46;0.88;;;0.80;;
11539;SDS011;5826;54.756;9.192;2022-09-09T14:16:12;1.55;;;1.00;;
11539;SDS011;5826;54.756;9.192;2022-09-09T14:18:38;1.60;;;0.90;;
11539;SDS011;5826;54.756;9.192;2022-09-09T14:21:04;1.30;;;1.00;;
11539;SDS011;5826;54.756;9.192;2022-09-09T14:23:29;1.35;;;0.90;;
11539;SDS011;5826;54.756;9.192;2022-09-09T14:25:55;1.10;;;0.77;;
11539;SDS011;5826;54.756;9.192;2022-09-09T14:28:21;1.02;;;0.80;;
11539;SDS011;5826;54.756;9.192;2022-09-09T14:30:46;0.75;;;0.75;;
11539;SDS011;5826;54.756;9.192;2022-09-09T14:33:13;1.00;;;0.85;;
11539;SDS011;5826;54.756;9.192;2022-09-09T14:35:40;1.00;;;0.80;;
11539;SDS011;5826;54.756;9.192;2022-09-09T14:38:07;1.55;;;1.23;;
11539;SDS011;5826;54.756;9.192;2022-09-09T14:40:34;1.15;;;0.90;;
11539;SDS011;5826;54.756;9.192;2022-09-09T14:43:01;1.15;;;1.05;;
11539;SDS011;5826;54.756;9.192;2022-09-09T14:45:27;1.50;;;0.93;;
11539;SDS011;5826;54.756;9.192;2022-09-09T14:47:53;1.58;;;1.20;;
11539;SDS011;5826;54.756;9.192;2022-09-09T14:50:19;1.15;;;1.00;;
11539;SDS011;5826;54.756;9.192;2022-09-09T14:52:45;2.03;;;1.00;;
11539;SDS011;5826;54.756;9.192;2022-09-09T14:55:11;1.70;;;1.20;;
11539;SDS011;5826;54.756;9.192;2022-09-09T14:57:37;1.67;;;1.20;;
11539;SDS011;5826;54.756;9.192;2022-09-09T15:00:05;1.17;;;1.00;;
11539;SDS011;5826;54.756;9.192;2022-09-09T15:02:31;1.05;;;0.93;;
11539;SDS011;5826;54.756;9.192;2022-09-09T15:04:57;1.70;;;0.85;;
11539;SDS011;5826;54.756;9.192;2022-09-09T15:07:23;1.83;;;0.95;;
11539;SDS011;5826;54.756;9.192;2022-09-09T15:09:49;1.63;;;0.80;;
11539;SDS011;5826;54.756;9.192;2022-09-09T15:12:15;1.00;;;0.70;;
11539;SDS011;5826;54.756;9.192;2022-09-09T15:14:43;2.15;;;1.02;;
11539;SDS011;5826;54.756;9.192;2022-09-09T15:17:09;1.27;;;0.90;;
11539;SDS011;5826;54.756;9.192;2022-09-09T15:19:35;1.95;;;1.10;;
11539;SDS011;5826;54.756;9.192;2022-09-09T15:22:02;1.40;;;0.90;;
11539;SDS011;5826;54.756;9.192;2022-09-09T15:24:30;1.67;;;1.02;;
11539;SDS011;5826;54.756;9.192;2022-09-09T15:26:56;1.52;;;0.80;;
11539;SDS011;5826;54.756;9.192;2022-09-09T15:29:22;0.98;;;0.70;;
11539;SDS011;5826;54.756;9.192;2022-09-09T15:31:48;1.05;;;0.80;;
11539;SDS011;5826;54.756;9.192;2022-09-09T15:34:13;0.55;;;0.55;;
11539;SDS011;5826;54.756;9.192;2022-09-09T15:36:40;1.25;;;0.82;;
11539;SDS011;5826;54.756;9.192;2022-09-09T15:39:08;1.25;;;0.60;;
11539;SDS011;5826;54.756;9.192;2022-09-09T15:41:40;0.85;;;0.52;;
11539;SDS011;5826;54.756;9.192;2022-09-09T15:44:06;1.15;;;0.60;;
11539;SDS011;5826;54.756;9.192;2022-09-09T15:46:37;0.95;;;0.65;;
11539;SDS011;5826;54.756;9.192;2022-09-09T15:49:05;0.88;;;0.60;;
11539;SDS011;5826;54.756;9.192;2022-09-09T15:51:34;0.93;;;0.60;;
11539;SDS011;5826;54.756;9.192;2022-09-09T15:54:00;1.27;;;0.60;;
11539;SDS011;5826;54.756;9.192;2022-09-09T15:56:26;1.00;;;0.75;;
11539;SDS011;5826;54.756;9.192;2022-09-09T15:58:53;0.57;;;0.50;;
11539;SDS011;5826;54.756;9.192;2022-09-09T16:01:20;0.95;;;0.57;;
11539;SDS011;5826;54.756;9.192;2022-09-09T16:03:45;0.70;;;0.60;;
11539;SDS011;5826;54.756;9.192;2022-09-09T16:06:12;0.75;;;0.60;;
11539;SDS011;5826;54.756;9.192;2022-09-09T16:08:40;1.70;;;0.68;;
11539;SDS011;5826;54.756;9.192;2022-09-09T16:11:08;1.50;;;1.08;;
11539;SDS011;5826;54.756;9.192;2022-09-09T16:13:36;1.15;;;1.05;;
11539;SDS011;5826;54.756;9.192;2022-09-09T16:16:02;1.10;;;1.00;;
11539;SDS011;5826;54.756;9.192;2022-09-09T16:18:33;0.80;;;0.80;;
11539;SDS011;5826;54.756;9.192;2022-09-09T16:21:03;0.98;;;0.80;;
11539;SDS011;5826;54.756;9.192;2022-09-09T16:23:31;0.70;;;0.70;;
11539;SDS011;5826;54.756;9.192;2022-09-09T16:25:57;1.08;;;0.73;;
11539;SDS011;5826;54.756;9.192;2022-09-09T16:28:23;1.92;;;0.85;;
11539;SDS011;5826;54.756;9.192;2022-09-09T16:30:49;1.30;;;0.80;;
11539;SDS011;5826;54.756;9.192;2022-09-09T16:33:15;0.85;;;0.70;;
11539;SDS011;5826;54.756;9.192;2022-09-09T16:35:41;0.88;;;0.70;;
11539;SDS011;5826;54.756;9.192;2022-09-09T16:38:06;1.00;;;0.70;;
11539;SDS011;5826;54.756;9.192;2022-09-09T16:40:38;1.13;;;0.68;;
11539;SDS011;5826;54.756;9.192;2022-09-09T16:43:06;0.57;;;0.57;;
11539;SDS011;5826;54.756;9.192;2022-09-09T16:45:32;1.13;;;0.63;;
11539;SDS011;5826;54.756;9.192;2022-09-09T16:47:58;0.50;;;0.50;;
11539;SDS011;5826;54.756;9.192;2022-09-09T16:50:25;1.15;;;0.63;;
11539;SDS011;5826;54.756;9.192;2022-09-09T16:52:51;1.90;;;0.80;;
11539;SDS011;5826;54.756;9.192;2022-09-09T16:55:17;1.33;;;0.80;;
11539;SDS011;5826;54.756;9.192;2022-09-09T16:57:45;0.70;;;0.70;;
11539;SDS011;5826;54.756;9.192;2022-09-09T17:00:13;1.15;;;0.80;;
11539;SDS011;5826;54.756;9.192;2022-09-09T17:02:39;2.90;;;1.05;;
11539;SDS011;5826;54.756;9.192;2022-09-09T17:05:05;1.92;;;1.00;;
11539;SDS011;5826;54.756;9.192;2022-09-09T17:07:31;2.47;;;1.13;;
11539;SDS011;5826;54.756;9.192;2022-09-09T17:09:57;2.08;;;0.90;;
11539;SDS011;5826;54.756;9.192;2022-09-09T17:12:22;2.65;;;1.10;;
11539;SDS011;5826;54.756;9.192;2022-09-09T17:14:48;1.67;;;0.80;;
11539;SDS011;5826;54.756;9.192;2022-09-09T17:17:14;2.20;;;0.90;;
11539;SDS011;5826;54.756;9.192;2022-09-09T17:19:40;1.85;;;0.70;;
11539;SDS011;5826;54.756;9.192;2022-09-09T17:22:05;0.95;;;0.77;;
11539;SDS011;5826;54.756;9.192;2022-09-09T17:24:31;2.30;;;0.80;;
11539;SDS011;5826;54.756;9.192;2022-09-09T17:26:59;1.10;;;0.70;;
11539;SDS011;5826;54.756;9.192;2022-09-09T17:29:26;1.23;;;1.00;;
11539;SDS011;5826;54.756;9.192;2022-09-09T17:31:52;1.98;;;1.00;;
11539;SDS011;5826;54.756;9.192;2022-09-09T17:34:18;1.15;;;0.88;;
11539;SDS011;5826;54.756;9.192;2022-09-09T17:36:43;1.52;;;0.88;;
11539;SDS011;5826;54.756;9.192;2022-09-09T17:39:09;1.85;;;0.60;;
11539;SDS011;5826;54.756;9.192;2022-09-09T17:41:35;1.33;;;0.73;;